createdAt,value
2018-12-26T00:02:15.206Z,102274.63
2018-12-26T00:08:33.194Z,102280.99
2018-12-26T00:11:22.636Z,102273.27
2018-12-26T00:14:04.739Z,102270.27
2018-12-26T00:16:54.134Z,102281.27
2018-12-26T00:19:43.438Z,102268.65
2018-12-26T00:22:34.179Z,102274.45
2018-12-26T00:25:23.355Z,102269.53
2018-12-26T00:28:31.878Z,102265.86
2018-12-26T00:31:21.046Z,102263.09
2018-12-26T00:34:10.520Z,102262.75
2018-12-26T00:37:00.011Z,102258.09
2018-12-26T00:39:49.157Z,102265.73
2018-12-26T00:42:38.315Z,102272.88
2018-12-26T00:45:28.024Z,102265.32
2018-12-26T00:48:17.178Z,102272.14
2018-12-26T00:51:06.336Z,102260.13
2018-12-26T00:53:55.825Z,102263.42
2018-12-26T00:56:44.999Z,102259.36
2018-12-26T00:59:34.131Z,102261.11
2018-12-26T01:02:23.273Z,102262.44
2018-12-26T01:05:12.526Z,102269.50
2018-12-26T01:08:01.677Z,102266.32
2018-12-26T01:10:51.067Z,102256.75
2018-12-26T01:13:40.218Z,102257.84
2018-12-26T01:16:22.335Z,102257.77
2018-12-26T01:19:11.499Z,102260.19
2018-12-26T01:22:00.950Z,102255.38
2018-12-26T01:24:50.081Z,102251.56
2018-12-26T01:27:39.465Z,102247.63
2018-12-26T01:33:36.716Z,102253.58
2018-12-26T01:36:44.906Z,102254.59
2018-12-26T01:39:34.530Z,102252.98
2018-12-26T01:42:23.927Z,102249.05
2018-12-26T01:45:13.400Z,102241.27
2018-12-26T01:48:02.979Z,102245.47
2018-12-26T01:50:52.190Z,102252.28
2018-12-26T01:53:41.341Z,102248.71
2018-12-26T01:56:30.481Z,102245.01
2018-12-26T01:59:19.626Z,102237.81
2018-12-26T02:02:08.777Z,102237.03
2018-12-26T02:04:57.915Z,102233.44
2018-12-26T02:07:47.384Z,102238.51
2018-12-26T02:10:36.549Z,102233.70
2018-12-26T02:13:25.702Z,102226.44
2018-12-26T02:16:08.543Z,102230.42
2018-12-26T02:18:57.750Z,102241.08
2018-12-26T02:22:06.154Z,102242.41
2018-12-26T02:24:55.307Z,102241.42
2018-12-26T02:27:44.465Z,102251.40
2018-12-26T02:30:33.609Z,102237.42
2018-12-26T02:36:17.354Z,102249.32
2018-12-26T02:39:07.774Z,102255.28
2018-12-26T02:41:56.934Z,102241.13
2018-12-26T02:44:46.158Z,102247.84
2018-12-26T02:47:35.664Z,102236.95
2018-12-26T02:50:24.823Z,102237.77
2018-12-26T02:53:13.981Z,102236.36
2018-12-26T02:56:03.202Z,102237.16
2018-12-26T02:58:52.367Z,102227.84
2018-12-26T03:01:41.517Z,102238.51
2018-12-26T03:04:30.876Z,102224.83
2018-12-26T03:07:21.744Z,102225.53
2018-12-26T03:10:10.964Z,102232.29
2018-12-26T03:13:00.138Z,102237.28
2018-12-26T03:15:42.392Z,102232.22
2018-12-26T03:18:31.628Z,102224.45
2018-12-26T03:21:40.197Z,102225.69
2018-12-26T03:24:29.374Z,102233.70
2018-12-26T03:27:18.817Z,102228.17
2018-12-26T03:33:02.525Z,102232.75
2018-12-26T03:35:51.800Z,102233.84
2018-12-26T03:41:49.280Z,102237.37
2018-12-26T03:47:54.037Z,102220.20
2018-12-26T03:50:43.489Z,102218.61
2018-12-26T03:53:32.648Z,102221.29
2018-12-26T03:56:22.228Z,102208.63
2018-12-26T04:02:40.018Z,102222.80
2018-12-26T04:08:43.943Z,102211.09
2018-12-26T04:11:33.250Z,102226.70
2018-12-26T04:14:15.290Z,102217.55
2018-12-26T04:17:04.679Z,102225.24
2018-12-26T04:26:24.384Z,102233.11
2018-12-26T04:29:13.527Z,102232.22
2018-12-26T04:32:02.734Z,102224.00
2018-12-26T04:34:51.856Z,102234.80
2018-12-26T04:37:41.011Z,102238.52
2018-12-26T04:40:30.427Z,102241.53
2018-12-26T04:43:19.603Z,102232.48
2018-12-26T04:46:09.046Z,102233.17
2018-12-26T04:48:58.527Z,102234.98
2018-12-26T04:51:47.684Z,102227.72
2018-12-26T04:54:36.848Z,102230.22
2018-12-26T04:57:26.012Z,102237.91
2018-12-26T05:00:15.158Z,102230.34
2018-12-26T05:03:04.309Z,102238.38
2018-12-26T05:05:53.755Z,102249.92
2018-12-26T05:08:43.411Z,102237.45
2018-12-26T05:11:32.597Z,102240.31
2018-12-26T05:14:22.184Z,102239.00
2018-12-26T05:17:06.241Z,102244.79
2018-12-26T05:20:14.712Z,102248.58
2018-12-26T05:23:03.877Z,102245.84
2018-12-26T05:26:12.124Z,102244.27
2018-12-26T05:29:01.257Z,102239.10
2018-12-26T05:35:06.484Z,102240.14
2018-12-26T05:37:55.631Z,102232.61
2018-12-26T05:40:44.802Z,102233.59
2018-12-26T05:43:33.964Z,102244.88
2018-12-26T05:46:23.146Z,102239.80
2018-12-26T05:49:12.512Z,102235.84
2018-12-26T05:52:01.671Z,102245.01
2018-12-26T05:54:50.810Z,102248.10
2018-12-26T05:57:54.243Z,102246.99
2018-12-26T06:00:30.874Z,102249.38
2018-12-26T06:03:20.034Z,102249.52
2018-12-26T06:06:09.290Z,102256.06
2018-12-26T06:08:58.446Z,102253.90
2018-12-26T06:11:47.872Z,102253.31
2018-12-26T06:14:37.261Z,102254.98
2018-12-26T06:17:19.858Z,102251.83
2018-12-26T06:20:09.009Z,102258.84
2018-12-26T06:22:58.172Z,102267.63
2018-12-26T06:25:47.319Z,102260.65
2018-12-26T06:28:36.740Z,102250.55
2018-12-26T06:31:25.913Z,102256.94
2018-12-26T06:34:15.070Z,102245.73
2018-12-26T06:37:04.528Z,102247.30
2018-12-26T06:40:00.778Z,102250.59
2018-12-26T06:42:49.926Z,102262.80
2018-12-26T06:45:39.095Z,102257.02
2018-12-26T06:48:28.260Z,102249.31
2018-12-26T06:51:17.419Z,102256.47
2018-12-26T06:54:06.596Z,102254.11
2018-12-26T06:56:56.092Z,102258.05
2018-12-26T06:59:45.237Z,102256.91
2018-12-26T07:02:34.729Z,102253.00
2018-12-26T07:05:23.895Z,102247.73
2018-12-26T07:08:13.049Z,102254.73
2018-12-26T07:11:02.217Z,102252.78
2018-12-26T07:13:51.702Z,102244.50
2018-12-26T07:16:34.537Z,102248.69
2018-12-26T07:19:24.188Z,102257.11
2018-12-26T07:22:13.335Z,102248.98
2018-12-26T07:25:02.520Z,102261.74
2018-12-26T07:27:51.757Z,102260.58
2018-12-26T07:30:40.907Z,102260.58
2018-12-26T07:33:30.346Z,102261.82
2018-12-26T07:36:19.811Z,102262.87
2018-12-26T07:39:09.303Z,102264.84
2018-12-26T07:41:58.689Z,102262.90
2018-12-26T07:44:48.014Z,102269.60
2018-12-26T07:47:37.413Z,102266.84
2018-12-26T07:50:26.584Z,102267.47
2018-12-26T07:53:15.960Z,102267.55
2018-12-26T07:56:05.123Z,102269.53
2018-12-26T07:58:54.272Z,102269.53
2018-12-26T08:01:43.505Z,102269.70
2018-12-26T08:04:52.076Z,102267.35
2018-12-26T08:07:41.233Z,102273.43
2018-12-26T08:10:30.396Z,102275.20
2018-12-26T08:13:19.550Z,102279.92
2018-12-26T08:16:01.574Z,102272.77
2018-12-26T08:18:50.757Z,102273.14
2018-12-26T08:21:39.915Z,102265.10
2018-12-26T08:24:29.071Z,102269.98
2018-12-26T08:27:18.346Z,102275.38
2018-12-26T08:30:07.698Z,102276.79
2018-12-26T08:32:56.867Z,102276.74
2018-12-26T08:35:46.027Z,102274.66
2018-12-26T08:38:35.257Z,102277.74
2018-12-26T08:41:24.427Z,102280.67
2018-12-26T08:44:13.614Z,102284.07
2018-12-26T08:47:02.772Z,102279.88
2018-12-26T08:49:51.913Z,102285.59
2018-12-26T08:52:41.088Z,102283.59
2018-12-26T08:55:30.236Z,102285.94
2018-12-26T09:01:14.027Z,102281.67
2018-12-26T09:04:03.179Z,102286.73
2018-12-26T09:06:52.416Z,102280.27
2018-12-26T09:10:00.959Z,102280.05
2018-12-26T09:12:50.332Z,102294.16
2018-12-26T09:15:39.496Z,102295.47
2018-12-26T09:18:28.663Z,102297.42
2018-12-26T09:21:18.113Z,102288.30
2018-12-26T09:27:03.434Z,102291.90
2018-12-26T09:29:53.162Z,102293.45
2018-12-26T09:32:43.773Z,102284.45
2018-12-26T09:35:33.047Z,102284.58
2018-12-26T09:38:22.208Z,102284.16
2018-12-26T09:41:11.806Z,102275.88
2018-12-26T09:44:00.984Z,102273.05
2018-12-26T09:46:50.428Z,102266.05
2018-12-26T09:49:39.919Z,102265.08
2018-12-26T09:52:29.397Z,102256.11
2018-12-26T09:55:18.975Z,102256.28
2018-12-26T09:58:08.165Z,102248.94
2018-12-26T10:00:57.358Z,102256.64
2018-12-26T10:03:46.528Z,102252.76
2018-12-26T10:06:35.691Z,102247.16
2018-12-26T10:09:24.907Z,102242.72
2018-12-26T10:12:14.056Z,102235.57
2018-12-26T10:15:03.553Z,102235.48
2018-12-26T10:17:45.491Z,102244.86
2018-12-26T10:20:34.643Z,102249.64
2018-12-26T10:23:23.822Z,102239.45
2018-12-26T10:26:13.062Z,102243.06
2018-12-26T10:29:02.231Z,102245.70
2018-12-26T10:31:51.393Z,102237.59
2018-12-26T10:34:40.540Z,102235.02
2018-12-26T10:37:29.694Z,102231.53
2018-12-26T10:40:18.860Z,102231.99
2018-12-26T10:43:08.367Z,102229.42
2018-12-26T10:45:57.526Z,102235.05
2018-12-26T10:48:47.210Z,102230.48
2018-12-26T10:51:36.582Z,102229.09
2018-12-26T10:54:25.748Z,102225.28
2018-12-26T10:57:14.902Z,102223.83
2018-12-26T11:03:19.576Z,102226.53
2018-12-26T11:06:09.023Z,102219.67
2018-12-26T11:08:58.408Z,102216.20
2018-12-26T11:11:47.605Z,102221.82
2018-12-26T11:14:36.761Z,102211.14
2018-12-26T11:17:19.040Z,102205.31
2018-12-26T11:20:11.225Z,102213.52
2018-12-26T11:23:00.384Z,102215.66
2018-12-26T11:26:08.971Z,102213.51
2018-12-26T11:28:58.118Z,102211.12
2018-12-26T11:31:47.618Z,102209.78
2018-12-26T11:34:37.090Z,102208.91
2018-12-26T11:37:26.324Z,102202.69
2018-12-26T11:40:35.287Z,102206.80
2018-12-26T11:43:24.614Z,102199.59
2018-12-26T11:46:14.023Z,102208.42
2018-12-26T11:49:03.507Z,102199.97
2018-12-26T11:51:52.698Z,102198.75
2018-12-26T11:54:41.841Z,102201.83
2018-12-26T11:57:31.061Z,102204.85
2018-12-26T12:00:20.766Z,102205.59
2018-12-26T12:03:10.006Z,102213.22
2018-12-26T12:05:59.483Z,102212.91
2018-12-26T12:08:48.731Z,102217.58
2018-12-26T12:11:37.890Z,102219.81
2018-12-26T12:14:27.117Z,102219.95
2018-12-26T12:17:08.767Z,102211.81
2018-12-26T12:19:57.955Z,102214.09
2018-12-26T12:22:47.112Z,102216.16
2018-12-26T12:25:36.317Z,102224.57
2018-12-26T12:28:25.504Z,102221.00
2018-12-26T12:31:14.663Z,102221.83
2018-12-26T12:34:04.077Z,102216.42
2018-12-26T12:36:53.238Z,102216.09
2018-12-26T12:40:01.457Z,102223.44
2018-12-26T12:43:09.663Z,102226.47
2018-12-26T12:45:59.207Z,102226.69
2018-12-26T12:48:48.681Z,102226.53
2018-12-26T12:51:38.167Z,102222.30
2018-12-26T12:54:46.360Z,102227.83
2018-12-26T12:57:35.830Z,102228.17
2018-12-26T13:00:24.973Z,102228.17
2018-12-26T13:03:14.136Z,102231.47
2018-12-26T13:06:03.305Z,102227.38
2018-12-26T13:08:52.484Z,102233.72
2018-12-26T13:11:41.633Z,102232.94
2018-12-26T13:14:30.822Z,102234.16
2018-12-26T13:17:12.503Z,102223.10
2018-12-26T13:20:01.692Z,102225.52
2018-12-26T13:22:50.902Z,102224.92
2018-12-26T13:25:40.049Z,102226.42
2018-12-26T13:28:29.510Z,102231.53
2018-12-26T13:31:18.753Z,102237.55
2018-12-26T13:34:07.910Z,102237.91
2018-12-26T13:36:57.068Z,102233.70
2018-12-26T13:39:46.480Z,102240.34
2018-12-26T13:42:35.613Z,102239.31
2018-12-26T13:45:25.024Z,102237.00
2018-12-26T13:48:14.254Z,102234.20
2018-12-26T13:51:03.418Z,102237.27
2018-12-26T13:53:52.587Z,102234.27
2018-12-26T13:56:41.748Z,102229.52
2018-12-26T13:59:30.919Z,102226.81
2018-12-26T14:02:20.305Z,102225.53
2018-12-26T14:05:09.549Z,102233.17
2018-12-26T14:07:58.951Z,102229.23
2018-12-26T14:10:48.449Z,102221.41
2018-12-26T14:13:37.922Z,102222.04
2018-12-26T14:16:19.885Z,102220.63
2018-12-26T14:19:09.098Z,102223.78
2018-12-26T14:21:58.246Z,102232.22
2018-12-26T14:24:47.639Z,102223.73
2018-12-26T14:27:37.414Z,102227.16
2018-12-26T14:30:26.573Z,102221.97
2018-12-26T14:33:15.730Z,102224.66
2018-12-26T14:36:04.901Z,102229.72
2018-12-26T14:38:54.375Z,102223.78
2018-12-26T14:41:43.528Z,102235.05
2018-12-26T14:44:32.682Z,102232.42
2018-12-26T14:47:22.094Z,102229.02
2018-12-26T14:50:30.295Z,102222.64
2018-12-26T14:53:19.796Z,102220.55
2018-12-26T14:56:09.252Z,102216.30
2018-12-26T14:58:58.711Z,102225.06
2018-12-26T15:01:47.877Z,102221.13
2018-12-26T15:04:37.369Z,102224.45
2018-12-26T15:07:26.573Z,102225.88
2018-12-26T15:10:15.712Z,102225.88
2018-12-26T15:13:04.882Z,102223.80
2018-12-26T15:15:54.643Z,102232.97
2018-12-26T15:18:43.775Z,102233.17
2018-12-26T15:21:32.953Z,102235.84
2018-12-26T15:24:22.329Z,102238.29
2018-12-26T15:27:11.853Z,102235.47
2018-12-26T15:30:00.991Z,102232.44
2018-12-26T15:32:50.158Z,102238.31
2018-12-26T15:35:39.477Z,102233.08
2018-12-26T15:38:28.627Z,102239.10
2018-12-26T15:41:17.811Z,102239.13
2018-12-26T15:44:07.001Z,102234.59
2018-12-26T15:46:56.186Z,102238.70
2018-12-26T15:49:45.328Z,102233.64
2018-12-26T15:52:34.480Z,102230.95
2018-12-26T15:55:23.634Z,102235.47
2018-12-26T15:58:12.838Z,102228.38
2018-12-26T16:01:02.242Z,102232.08
2018-12-26T16:03:51.419Z,102225.14
2018-12-26T16:06:40.985Z,102223.10
2018-12-26T16:09:30.162Z,102226.52
2018-12-26T16:12:19.470Z,102227.02
2018-12-26T16:15:28.981Z,102227.22
2018-12-26T16:18:14.052Z,102232.08
2018-12-26T16:21:03.226Z,102232.16
2018-12-26T16:23:52.377Z,102226.56
2018-12-26T16:26:41.587Z,102230.77
2018-12-26T16:29:31.008Z,102226.86
2018-12-26T16:32:20.428Z,102231.13
2018-12-26T16:35:29.027Z,102227.55
2018-12-26T16:38:18.180Z,102226.64
2018-12-26T16:41:07.562Z,102227.00
2018-12-26T16:43:56.745Z,102233.89
2018-12-26T16:46:45.936Z,102240.11
2018-12-26T16:49:35.351Z,102232.39
2018-12-26T16:52:24.833Z,102237.37
2018-12-26T16:55:14.070Z,102240.73
2018-12-26T17:00:58.405Z,102238.58
2018-12-26T17:03:47.615Z,102240.91
2018-12-26T17:06:36.760Z,102238.70
2018-12-26T17:12:21.221Z,102236.92
2018-12-26T17:15:10.768Z,102239.37
2018-12-26T17:17:52.497Z,102248.03
2018-12-26T17:20:41.798Z,102248.20
2018-12-26T17:23:31.483Z,102256.98
2018-12-26T17:26:20.675Z,102252.20
2018-12-26T17:29:09.843Z,102254.81
2018-12-26T17:31:59.006Z,102257.39
2018-12-26T17:34:48.158Z,102255.70
2018-12-26T17:37:37.647Z,102259.20
2018-12-26T17:40:26.826Z,102263.94
2018-12-26T17:43:15.980Z,102266.84
2018-12-26T17:49:20.868Z,102272.31
2018-12-26T17:52:10.080Z,102262.39
2018-12-26T17:55:37.683Z,102270.73
2018-12-26T17:58:29.233Z,102274.59
2018-12-26T18:01:56.890Z,102277.86
2018-12-26T18:04:46.166Z,102275.50
2018-12-26T18:07:35.327Z,102274.92
2018-12-26T18:10:24.786Z,102278.28
2018-12-26T18:13:13.920Z,102276.70
2018-12-26T18:16:03.137Z,102267.53
2018-12-26T18:18:52.584Z,102269.70
2018-12-26T18:21:41.805Z,102271.03
2018-12-26T18:24:30.980Z,102276.75
2018-12-26T18:27:20.411Z,102273.02
2018-12-26T18:33:39.688Z,102275.94
2018-12-26T18:36:28.853Z,102277.13
2018-12-26T18:39:18.011Z,102275.54
2018-12-26T18:42:07.190Z,102268.72
2018-12-26T18:44:56.361Z,102273.41
2018-12-26T18:47:45.744Z,102267.42
2018-12-26T18:50:35.168Z,102268.93
2018-12-26T18:53:24.373Z,102264.58
2018-12-26T18:56:13.530Z,102268.78
2018-12-26T18:59:03.000Z,102272.22
2018-12-26T19:01:52.211Z,102267.60
2018-12-26T19:04:41.659Z,102269.00
2018-12-26T19:07:49.776Z,102277.92
2018-12-26T19:10:38.930Z,102279.23
2018-12-26T19:13:28.100Z,102284.32
2018-12-26T19:16:09.989Z,102281.25
2018-12-26T19:18:59.181Z,102283.87
2018-12-26T19:21:48.335Z,102282.18
2018-12-26T19:24:37.486Z,102289.73
2018-12-26T19:27:27.032Z,102289.69
2018-12-26T19:30:16.201Z,102291.63
2018-12-26T19:33:05.562Z,102292.45
2018-12-26T19:35:54.742Z,102290.00
2018-12-26T19:38:43.914Z,102292.99
2018-12-26T19:41:33.403Z,102291.77
2018-12-26T19:44:42.283Z,102296.00
2018-12-26T19:47:31.808Z,102296.12
2018-12-26T19:50:21.038Z,102292.84
2018-12-26T19:53:10.215Z,102292.82
2018-12-26T19:55:59.732Z,102298.93
2018-12-26T19:58:49.170Z,102294.80
2018-12-26T20:01:38.684Z,102295.73
2018-12-26T20:04:28.060Z,102300.66
2018-12-26T20:07:17.210Z,102298.89
2018-12-26T20:10:07.759Z,102296.74
2018-12-26T20:12:57.305Z,102297.95
2018-12-26T20:15:46.470Z,102301.69
2018-12-26T20:18:28.902Z,102299.37
2018-12-26T20:21:18.060Z,102293.58
2018-12-26T20:24:07.225Z,102294.10
2018-12-26T20:26:56.408Z,102295.48
2018-12-26T20:29:45.565Z,102289.67
2018-12-26T20:32:34.781Z,102288.53
2018-12-26T20:35:24.173Z,102293.00
2018-12-26T20:38:13.347Z,102289.03
2018-12-26T20:41:02.622Z,102289.12
2018-12-26T20:44:10.803Z,102284.88
2018-12-26T20:47:00.201Z,102292.89
2018-12-26T20:49:49.436Z,102288.29
2018-12-26T20:52:38.527Z,102285.84
2018-12-26T20:55:28.009Z,102286.30
2018-12-26T21:01:25.332Z,102284.02
2018-12-26T21:04:15.274Z,102291.47
2018-12-26T21:06:45.409Z,102287.53
2018-12-26T21:09:16.468Z,102293.27
2018-12-26T21:11:46.803Z,102286.23
2018-12-26T21:14:17.294Z,102281.20
2018-12-26T21:16:54.800Z,102282.05
2018-12-26T21:19:19.335Z,102287.03
2018-12-26T21:21:49.315Z,102285.84
2018-12-26T21:24:19.404Z,102281.09
2018-12-26T21:27:08.893Z,102285.28
2018-12-26T21:29:38.870Z,102282.52
2018-12-26T21:32:28.105Z,102283.24
2018-12-26T21:35:17.590Z,102284.33
2018-12-26T21:38:06.853Z,102286.56
2018-12-26T21:41:15.170Z,102288.92
2018-12-26T21:44:04.452Z,102283.14
2018-12-26T21:46:53.900Z,102286.68
2018-12-26T21:49:43.559Z,102280.02
2018-12-26T21:52:32.718Z,102279.19
2018-12-26T21:55:23.279Z,102284.25
2018-12-26T21:57:54.038Z,102275.39
2018-12-26T22:00:24.858Z,102279.70
2018-12-26T22:02:55.190Z,102277.25
2018-12-26T22:05:26.264Z,102269.84
2018-12-26T22:07:57.348Z,102277.25
2018-12-26T22:10:28.095Z,102269.98
2018-12-26T22:12:58.446Z,102267.29
2018-12-26T22:15:28.369Z,102271.70
2018-12-26T22:17:58.447Z,102273.63
2018-12-26T22:20:47.650Z,102278.13
2018-12-26T22:23:36.824Z,102283.48
2018-12-26T22:26:26.311Z,102293.77
2018-12-26T22:29:15.597Z,102292.58
2018-12-26T22:32:05.126Z,102296.89
2018-12-26T22:34:54.945Z,102294.68
2018-12-26T22:40:38.951Z,102287.42
2018-12-26T22:43:28.508Z,102288.08
2018-12-26T22:52:21.962Z,102291.91
2018-12-26T22:58:19.389Z,102290.45
2018-12-26T23:01:08.628Z,102280.41
2018-12-26T23:03:57.811Z,102276.53
2018-12-26T23:06:47.003Z,102289.59
2018-12-26T23:09:36.225Z,102280.05
2018-12-26T23:12:25.402Z,102261.41
2018-12-26T23:18:02.553Z,102267.64
2018-12-26T23:20:51.748Z,102268.66
2018-12-26T23:23:40.931Z,102262.89
2018-12-26T23:26:30.080Z,102255.27
2018-12-26T23:29:19.321Z,102250.70
2018-12-26T23:32:08.478Z,102253.74
2018-12-26T23:34:57.652Z,102243.50
2018-12-26T23:40:55.062Z,102242.21
2018-12-26T23:43:44.686Z,102238.12
2018-12-26T23:46:33.807Z,102242.03
2018-12-26T23:49:23.065Z,102248.76
2018-12-26T23:52:12.234Z,102254.53
2018-12-26T23:55:01.410Z,102245.78
2018-12-26T23:57:50.819Z,102248.64
